Time;durP1;ratioP1;P1;durP2;ratioP2;P2;SDS_P1;SDS_P2;PMS_P1;PMS_P2;Temp;Humidity;BMP_temperature;BMP_pressure;BME280_temperature;BME280_humidity;BME280_pressure;Samples;Min_cycle;Max_cycle;Signal;HPM_P1;HPM_P2
2022/07/29 00:01:56;;;;;;;6.50;5.10;;;;;;;16.48;84.20;97611.09;7614396;23;20232;-68
2022/07/29 00:04:58;;;;;;;7.23;5.10;;;;;;;16.42;84.70;97609.09;7615541;23;20600;-68
2022/07/29 00:08:01;;;;;;;5.67;4.80;;;;;;;16.38;84.65;97614.88;7615584;23;20220;-68
2022/07/29 00:11:03;;;;;;;5.20;4.70;;;;;;;16.32;84.70;97620.88;7615674;23;20676;-68
2022/07/29 00:14:05;;;;;;;5.67;5.20;;;;;;;16.26;84.97;97617.03;7614878;23;20746;-68
2022/07/29 00:17:07;;;;;;;6.57;4.70;;;;;;;16.22;85.02;97616.50;7616665;23;20676;-68
2022/07/29 00:20:10;;;;;;;5.00;4.50;;;;;;;16.25;84.85;97620.69;7588088;23;20212;-67
2022/07/29 00:23:12;;;;;;;5.23;4.50;;;;;;;16.27;84.67;97618.66;7615554;23;20212;-68
2022/07/29 00:26:14;;;;;;;5.17;4.70;;;;;;;16.28;84.50;97620.34;7588529;23;20212;-68
2022/07/29 00:29:16;;;;;;;5.37;4.90;;;;;;;16.23;84.40;97612.00;7564668;23;20672;-68
2022/07/29 00:32:35;;;;;;;5.30;4.83;;;;;;;16.16;84.94;97616.31;7589193;23;20673;-68
2022/07/29 00:35:43;;;;;;;5.57;5.00;;;;;;;16.11;85.08;97605.28;7587858;23;20212;-68
2022/07/29 00:38:45;;;;;;;5.37;4.87;;;;;;;16.13;84.83;97604.16;7614681;23;20584;-68
2022/07/29 00:41:48;;;;;;;5.27;4.77;;;;;;;16.18;84.53;97603.66;7614064;23;20678;-68
2022/07/29 00:44:50;;;;;;;5.00;4.53;;;;;;;16.18;84.27;97606.31;7613985;23;20725;-69
2022/07/29 00:47:52;;;;;;;5.53;4.60;;;;;;;16.11;84.39;97605.28;7615338;23;20613;-68
2022/07/29 00:50:58;;;;;;;5.00;4.50;;;;;;;16.03;84.65;97598.09;7590843;23;20208;-67
2022/07/29 00:54:00;;;;;;;5.87;5.30;;;;;;;15.96;84.78;97593.59;7614429;23;20598;-68
2022/07/29 00:57:02;;;;;;;5.07;4.67;;;;;;;15.91;84.70;97596.72;7615382;23;20679;-67
2022/07/29 01:04:29;;;;;;;5.57;5.07;;;;;;;15.77;84.92;97589.34;7504556;23;20216;-68
2022/07/29 01:07:36;;;;;;;5.70;5.20;;;;;;;15.70;85.39;97593.59;7588816;23;20687;-68
2022/07/29 01:10:40;;;;;;;5.77;4.77;;;;;;;15.64;85.77;97594.22;7589789;23;20637;-67
2022/07/29 01:13:44;;;;;;;5.97;5.37;;;;;;;15.64;85.64;97591.56;7615144;23;20219;-67
2022/07/29 01:16:55;;;;;;;5.47;4.97;;;;;;;15.57;86.03;97591.38;7589184;23;20240;-67
2022/07/29 01:20:13;;;;;;;5.97;5.00;;;;;;;15.57;85.76;97590.53;7613499;23;20599;-68
2022/07/29 01:23:41;;;;;;;10.60;4.87;;;;;;;15.55;85.69;97590.69;7616531;23;20671;-68
2022/07/29 01:26:52;;;;;;;7.30;5.30;;;;;;;15.48;85.92;97593.09;7589234;23;20220;-68
2022/07/29 01:29:59;;;;;;;5.30;4.80;;;;;;;15.45;86.00;97596.09;7615013;23;20555;-68
2022/07/29 01:33:09;;;;;;;8.10;5.17;;;;;;;15.44;85.83;97599.72;7613527;23;20207;-68
2022/07/29 01:36:16;;;;;;;6.60;5.20;;;;;;;15.42;86.00;97590.22;7591180;23;20200;-68
2022/07/29 01:39:18;;;;;;;5.30;4.80;;;;;;;15.41;85.90;97594.72;7615402;23;20180;-67
2022/07/29 01:42:23;;;;;;;5.67;4.53;;;;;;;15.42;85.81;97587.56;7614384;23;20549;-68
2022/07/29 01:45:31;;;;;;;6.60;5.17;;;;;;;15.40;85.91;97590.38;7614697;23;20205;-68
2022/07/29 01:48:45;;;;;;;5.80;5.20;;;;;;;15.37;86.18;97601.31;7614938;23;20543;-68
2022/07/29 01:51:52;;;;;;;5.90;4.73;;;;;;;15.34;85.96;97590.19;7615204;23;20233;-67
2022/07/29 01:54:58;;;;;;;5.03;4.63;;;;;;;15.29;86.02;97590.63;7589920;23;20638;-67
2022/07/29 01:58:04;;;;;;;6.23;5.60;;;;;;;15.31;86.21;97593.13;7617311;23;20665;-67
2022/07/29 02:01:09;;;;;;;5.57;5.00;;;;;;;15.33;85.82;97596.47;7589841;23;20217;-67
2022/07/29 02:04:12;;;;;;;5.50;4.63;;;;;;;15.29;85.98;97598.59;7617160;23;20715;-68
2022/07/29 02:07:36;;;;;;;5.37;4.97;;;;;;;15.23;85.76;97599.22;7595554;23;20208;-67
2022/07/29 02:10:42;;;;;;;5.97;4.80;;;;;;;15.21;85.83;97603.84;7590596;23;20211;-68
2022/07/29 02:13:46;;;;;;;5.80;4.80;;;;;;;15.21;85.94;97609.19;7615599;23;20587;-68
2022/07/29 02:16:53;;;;;;;5.23;4.73;;;;;;;15.22;86.05;97602.88;7616040;23;20215;-67
2022/07/29 02:19:59;;;;;;;5.90;5.33;;;;;;;15.18;85.67;97609.47;7589856;23;20733;-67
2022/07/29 02:23:02;;;;;;;5.80;5.30;;;;;;;15.16;86.44;97605.31;7617170;23;20216;-67
2022/07/29 02:26:06;;;;;;;5.70;5.10;;;;;;;15.11;86.78;97605.78;7615521;23;20235;-67
2022/07/29 02:29:09;;;;;;;7.27;5.00;;;;;;;15.07;86.98;97601.75;7617024;23;20212;-67
2022/07/29 02:32:15;;;;;;;6.13;5.53;;;;;;;15.03;87.21;97603.03;7591083;23;20587;-68
2022/07/29 02:35:18;;;;;;;5.70;5.10;;;;;;;15.03;87.25;97600.38;7616190;23;20552;-67
2022/07/29 02:41:52;;;;;;;6.77;5.40;;;;;;;15.03;86.53;97603.03;7618184;23;20220;-68
2022/07/29 02:44:55;;;;;;;5.40;4.90;;;;;;;15.00;86.69;97601.53;7615804;23;20208;-68
2022/07/29 02:48:00;;;;;;;8.03;5.93;;;;;;;14.99;86.73;97594.53;7615978;23;20204;-68
2022/07/29 02:51:12;;;;;;;5.47;4.97;;;;;;;14.93;86.94;97592.50;7615659;23;20212;-67
2022/07/29 02:54:42;;;;;;;5.90;5.13;;;;;;;14.88;87.35;97591.25;7616641;23;20212;-68
2022/07/29 02:57:53;;;;;;;6.80;5.53;;;;;;;14.87;87.56;97592.28;7617348;23;20661;-68
2022/07/29 03:01:08;;;;;;;4.93;4.43;;;;;;;14.88;87.75;97596.56;7615488;23;20213;-67
2022/07/29 03:04:12;;;;;;;5.50;5.00;;;;;;;14.85;87.40;97592.44;7615210;23;20205;-68
2022/07/29 03:07:20;;;;;;;7.23;5.60;;;;;;;14.81;87.53;97595.53;7614554;23;20215;-67
2022/07/29 03:10:23;;;;;;;7.17;5.30;;;;;;;14.77;87.50;97595.00;7590277;23;20230;-68
2022/07/29 03:13:27;;;;;;;5.47;4.83;;;;;;;14.75;87.62;97592.50;7616888;23;20587;-68
2022/07/29 03:16:29;;;;;;;5.60;5.20;;;;;;;14.74;87.96;97598.81;7616556;23;20213;-67
2022/07/29 03:19:32;;;;;;;6.10;5.13;;;;;;;14.70;88.07;97600.06;7589800;23;20219;-68
2022/07/29 03:22:43;;;;;;;6.10;5.60;;;;;;;14.69;88.21;97598.41;7615968;23;20297;-67
2022/07/29 03:25:46;;;;;;;6.30;5.80;;;;;;;14.68;88.28;97594.06;7591125;23;20677;-67
2022/07/29 03:28:48;;;;;;;7.10;5.10;;;;;;;14.67;88.49;97589.75;7589675;23;20708;-67
2022/07/29 03:31:50;;;;;;;5.93;4.63;;;;;;;14.70;88.61;97599.25;7565525;23;20213;-68
2022/07/29 03:34:52;;;;;;;6.03;5.43;;;;;;;14.74;88.84;97590.00;7589286;23;20208;-68
2022/07/29 03:37:55;;;;;;;5.70;5.20;;;;;;;14.72;88.76;97597.28;7616353;23;20213;-68
2022/07/29 03:41:01;;;;;;;6.20;5.63;;;;;;;14.73;89.02;97593.63;7565745;23;20686;-68
2022/07/29 03:44:06;;;;;;;5.83;5.23;;;;;;;14.70;89.11;97593.94;7616618;23;20208;-67
2022/07/29 03:47:10;;;;;;;8.90;6.13;;;;;;;14.68;89.33;97591.41;7615427;23;20557;-68
2022/07/29 03:50:15;;;;;;;5.77;4.93;;;;;;;14.67;89.26;97595.06;7615403;23;20216;-68
2022/07/29 03:53:17;;;;;;;6.07;5.53;;;;;;;14.73;89.24;97594.47;7615805;23;20216;-67
2022/07/29 03:56:23;;;;;;;5.67;5.17;;;;;;;14.77;89.26;97590.50;7588810;23;20534;-67
2022/07/29 03:59:26;;;;;;;6.00;5.13;;;;;;;14.83;89.11;97598.88;7615611;23;20212;-67
2022/07/29 04:02:29;;;;;;;6.07;5.57;;;;;;;14.84;88.86;97600.53;7619261;23;20212;-68
2022/07/29 04:05:31;;;;;;;7.37;5.50;;;;;;;14.84;88.88;97595.22;7621408;23;20287;-68
2022/07/29 04:08:34;;;;;;;5.63;5.13;;;;;;;14.85;88.99;97604.88;7619728;23;20219;-68
2022/07/29 04:11:38;;;;;;;6.40;5.00;;;;;;;14.88;89.29;97601.91;7588711;23;20220;-67
2022/07/29 04:15:04;;;;;;;6.47;5.77;;;;;;;14.88;88.82;97600.06;7615162;23;20209;-68
2022/07/29 04:18:06;;;;;;;5.27;4.87;;;;;;;14.91;88.84;97602.44;7587715;23;20216;-68
2022/07/29 04:21:08;;;;;;;6.57;5.60;;;;;;;14.96;89.09;97610.81;7589389;23;20676;-68
2022/07/29 04:24:11;;;;;;;5.47;4.97;;;;;;;14.99;88.74;97601.66;7587862;23;20180;-68
2022/07/29 04:27:13;;;;;;;5.83;5.33;;;;;;;15.05;88.50;97601.91;7614834;23;20188;-67
2022/07/29 04:30:15;;;;;;;5.60;5.10;;;;;;;15.08;88.66;97608.72;7617650;23;20176;-68
2022/07/29 04:33:17;;;;;;;5.60;5.00;;;;;;;15.11;88.63;97605.78;7616277;23;20181;-68
2022/07/29 04:36:19;;;;;;;6.20;5.50;;;;;;;15.12;88.51;97596.81;7587738;23;20199;-68
2022/07/29 04:39:30;;;;;;;5.50;5.07;;;;;;;15.17;88.71;97605.19;7591350;23;20286;-67
2022/07/29 04:42:32;;;;;;;6.43;5.93;;;;;;;15.25;88.46;97605.22;7614628;23;20596;-68
2022/07/29 04:45:45;;;;;;;6.83;5.30;;;;;;;15.35;88.36;97603.31;7614447;23;20265;-68
2022/07/29 04:48:48;;;;;;;6.70;6.20;;;;;;;15.38;88.44;97599.50;7589214;23;20249;-68
2022/07/29 04:51:50;;;;;;;7.30;5.20;;;;;;;15.49;88.12;97607.22;7613817;23;20275;-68
2022/07/29 04:54:52;;;;;;;5.97;5.47;;;;;;;15.61;87.74;97599.84;7614727;23;20204;-68
2022/07/29 04:57:54;;;;;;;6.10;5.50;;;;;;;15.79;87.65;97605.94;7614917;23;20552;-68
2022/07/29 05:00:56;;;;;;;7.13;5.40;;;;;;;15.96;87.16;97605.06;7588245;23;20414;-68
2022/07/29 05:03:58;;;;;;;6.00;5.50;;;;;;;16.13;86.67;97614.81;7589389;23;20215;-68
2022/07/29 05:07:01;;;;;;;6.13;5.63;;;;;;;16.23;86.20;97617.34;7588096;23;20282;-68
2022/07/29 05:10:04;;;;;;;6.23;5.10;;;;;;;16.42;86.11;97616.25;7588953;23;20216;-68
2022/07/29 05:13:07;;;;;;;6.67;5.17;;;;;;;16.64;85.68;97622.84;7622705;23;20677;-68
2022/07/29 05:16:09;;;;;;;5.60;5.10;;;;;;;16.83;84.89;97615.41;7614337;23;20209;-68
2022/07/29 05:19:11;;;;;;;5.27;4.87;;;;;;;17.00;84.58;97618.06;7614532;23;20732;-67
2022/07/29 05:22:15;;;;;;;5.60;5.10;;;;;;;17.13;84.04;97616.59;7614978;23;20645;-68
2022/07/29 05:25:17;;;;;;;5.53;5.03;;;;;;;17.28;83.46;97617.59;7614640;23;20212;-68
2022/07/29 05:28:19;;;;;;;4.67;4.37;;;;;;;17.46;83.38;97612.09;7589090;23;20685;-68
2022/07/29 05:31:21;;;;;;;5.20;4.60;;;;;;;17.65;82.79;97616.28;7617517;23;20208;-68
2022/07/29 05:34:24;;;;;;;5.13;4.70;;;;;;;17.84;82.33;97621.25;7615946;23;20292;-68
2022/07/29 05:37:26;;;;;;;6.77;4.87;;;;;;;18.07;81.89;97621.34;7617447;23;20217;-68
2022/07/29 05:40:29;;;;;;;5.97;4.67;;;;;;;18.32;81.16;97619.44;7590914;23;20735;-68
2022/07/29 05:43:31;;;;;;;4.67;4.30;;;;;;;18.54;80.63;97625.84;7616600;23;20575;-68
2022/07/29 05:46:33;;;;;;;5.43;4.27;;;;;;;18.70;80.26;97629.31;7616712;23;20212;-68
2022/07/29 05:49:36;;;;;;;5.13;4.63;;;;;;;18.86;80.14;97631.06;7618025;23;20695;-67
2022/07/29 05:52:38;;;;;;;4.83;4.43;;;;;;;19.00;79.82;97632.13;7617590;23;20223;-68
2022/07/29 05:55:41;;;;;;;4.70;4.30;;;;;;;19.15;79.65;97635.72;7616786;23;20212;-68
2022/07/29 05:58:43;;;;;;;4.80;4.40;;;;;;;19.28;79.31;97635.94;7616981;23;20562;-68
2022/07/29 06:01:48;;;;;;;5.37;4.87;;;;;;;19.37;79.53;97634.88;7590625;23;20217;-68
2022/07/29 06:04:50;;;;;;;4.67;4.17;;;;;;;19.42;79.27;97629.00;7590134;23;20220;-68
2022/07/29 06:07:53;;;;;;;4.73;4.20;;;;;;;19.57;78.58;97637.91;7616354;23;20212;-68
2022/07/29 06:10:55;;;;;;;4.40;4.00;;;;;;;19.76;78.41;97637.44;7616231;23;20208;-68
2022/07/29 06:13:57;;;;;;;4.73;4.20;;;;;;;19.84;78.06;97645.38;7590722;23;20208;-68
2022/07/29 06:16:59;;;;;;;4.40;4.10;;;;;;;19.93;77.79;97640.78;7616331;23;20219;-68
2022/07/29 06:20:02;;;;;;;4.07;3.57;;;;;;;20.14;77.34;97648.09;7578724;23;20228;-68
2022/07/29 06:23:04;;;;;;;4.53;4.17;;;;;;;20.25;77.00;97639.59;7580927;23;20692;-68
2022/07/29 06:26:06;;;;;;;4.63;4.07;;;;;;;20.32;76.99;97637.00;7578157;23;20205;-69
2022/07/29 06:29:10;;;;;;;5.80;4.20;;;;;;;20.36;76.49;97632.97;7579689;23;20257;-69
2022/07/29 06:32:12;;;;;;;4.23;3.93;;;;;;;20.35;76.36;97629.47;7579988;23;20216;-68
2022/07/29 06:35:14;;;;;;;4.73;4.33;;;;;;;20.48;75.88;97636.81;7580303;23;20550;-68
2022/07/29 06:38:38;;;;;;;4.43;4.13;;;;;;;20.61;75.58;97642.38;7579716;23;20252;-68
2022/07/29 06:41:50;;;;;;;4.47;4.03;;;;;;;20.60;75.79;97652.25;7579318;23;20549;-69
2022/07/29 06:44:52;;;;;;;4.37;3.97;;;;;;;20.72;75.52;97649.94;7578256;23;20213;-68
2022/07/29 06:47:54;;;;;;;5.87;4.10;;;;;;;20.82;75.64;97650.47;7580851;23;20224;-69
2022/07/29 06:50:56;;;;;;;5.33;4.50;;;;;;;20.81;75.12;97650.66;7578403;23;20658;-68
2022/07/29 06:53:59;;;;;;;4.10;3.80;;;;;;;20.84;74.96;97647.59;7581072;23;20528;-69
2022/07/29 06:57:13;;;;;;;4.93;4.07;;;;;;;20.85;74.79;97668.06;7579829;23;20205;-68
2022/07/29 07:00:16;;;;;;;4.67;4.27;;;;;;;21.02;74.61;97660.59;7580484;23;20178;-68
2022/07/29 07:03:19;;;;;;;6.60;3.90;;;;;;;21.15;73.87;97658.91;7580044;23;20212;-68
2022/07/29 07:06:21;;;;;;;4.57;3.90;;;;;;;21.25;73.32;97664.00;7580102;23;20716;-68
2022/07/29 07:09:23;;;;;;;4.10;3.80;;;;;;;21.55;72.38;97665.53;7579427;23;20216;-68
2022/07/29 07:12:40;;;;;;;4.50;4.10;;;;;;;21.93;71.76;97667.91;7579922;23;20206;-68
2022/07/29 07:15:43;;;;;;;4.10;3.70;;;;;;;22.18;70.58;97652.19;7579468;23;20209;-68
2022/07/29 07:18:45;;;;;;;4.30;4.00;;;;;;;22.38;70.70;97659.34;7591219;23;20228;-68
2022/07/29 07:21:48;;;;;;;4.50;4.10;;;;;;;22.36;70.00;97656.03;7615476;23;20219;-69
2022/07/29 07:24:50;;;;;;;4.20;3.80;;;;;;;22.27;70.20;97659.06;7617852;23;20223;-68
2022/07/29 07:27:52;;;;;;;4.60;4.20;;;;;;;22.38;69.11;97656.66;7615251;23;20208;-69
2022/07/29 07:30:54;;;;;;;4.13;3.80;;;;;;;22.70;68.34;97662.41;7614724;23;20287;-68
2022/07/29 07:33:57;;;;;;;4.23;3.83;;;;;;;23.34;66.22;97657.50;7614828;23;20668;-68
2022/07/29 07:36:59;;;;;;;3.63;3.33;;;;;;;24.18;63.30;97665.81;7589258;23;20552;-68
2022/07/29 07:40:02;;;;;;;5.10;3.97;;;;;;;24.93;60.09;97664.44;7616770;23;20213;-69
2022/07/29 07:43:05;;;;;;;3.90;3.57;;;;;;;25.73;57.48;97664.84;7589125;23;20216;-68
2022/07/29 07:46:07;;;;;;;4.70;3.70;;;;;;;26.53;54.23;97667.69;7615298;23;20528;-69
2022/07/29 07:49:09;;;;;;;4.00;3.70;;;;;;;27.10;51.79;97659.09;7589410;23;20393;-68
2022/07/29 07:52:11;;;;;;;3.80;3.50;;;;;;;27.36;50.54;97657.88;7614605;23;20208;-68
2022/07/29 07:55:14;;;;;;;4.60;3.60;;;;;;;27.14;49.09;97670.31;7589361;23;20243;-68
2022/07/29 07:58:16;;;;;;;3.80;3.50;;;;;;;26.81;50.88;97665.25;7588039;23;20682;-68
2022/07/29 08:01:20;;;;;;;5.05;3.83;;;;;;;26.41;52.02;97665.72;7615103;23;20215;-68
2022/07/29 08:04:24;;;;;;;3.88;3.53;;;;;;;25.94;52.55;97674.44;7616540;23;20287;-68
2022/07/29 08:07:30;;;;;;;4.55;3.40;;;;;;;25.85;53.07;97678.47;7614298;23;20522;-68
2022/07/29 08:13:53;;;;;;;4.07;3.67;;;;;;;27.36;48.32;97673.31;7615890;23;20239;-68
2022/07/29 08:16:55;;;;;;;4.65;3.65;;;;;;;27.57;46.14;97672.00;7590744;23;20219;-68
2022/07/29 08:19:57;;;;;;;3.60;3.30;;;;;;;27.70;47.85;97675.38;7615392;23;20224;-68
2022/07/29 08:22:59;;;;;;;3.90;3.60;;;;;;;28.09;46.38;97665.75;7614741;23;20239;-68
2022/07/29 08:26:01;;;;;;;3.75;3.47;;;;;;;28.70;45.16;97661.75;7615575;23;20212;-68
2022/07/29 08:29:04;;;;;;;4.43;3.35;;;;;;;28.71;44.16;97668.81;7589352;23;20208;-68
2022/07/29 08:32:06;;;;;;;3.80;3.45;;;;;;;28.69;45.58;97667.41;7588984;23;20525;-68
2022/07/29 08:35:09;;;;;;;3.60;3.30;;;;;;;28.71;45.77;97668.00;7588969;23;20218;-69
2022/07/29 08:38:11;;;;;;;3.88;3.25;;;;;;;28.84;46.00;97667.78;7564294;23;20557;-68
2022/07/29 08:41:13;;;;;;;3.60;3.28;;;;;;;29.19;45.95;97664.94;7590984;23;20227;-68
2022/07/29 08:44:17;;;;;;;3.63;3.33;;;;;;;29.52;43.74;97672.41;7564629;23;20219;-69
2022/07/29 08:47:29;;;;;;;4.88;3.30;;;;;;;29.80;41.73;97664.19;7613242;23;20208;-68
2022/07/29 08:50:34;;;;;;;3.30;3.10;;;;;;;29.87;42.29;97667.56;7615481;23;20219;-69
2022/07/29 08:53:37;;;;;;;3.78;3.47;;;;;;;30.18;43.05;97662.66;7587398;23;20701;-69
2022/07/29 08:56:40;;;;;;;3.50;3.20;;;;;;;30.59;42.80;97662.22;7614468;23;20208;-69
2022/07/29 08:59:45;;;;;;;3.47;3.17;;;;;;;30.27;42.99;97667.44;7614179;23;20204;-69
2022/07/29 09:02:53;;;;;;;4.25;3.40;;;;;;;30.18;42.66;97659.94;7614456;23;20212;-69
2022/07/29 09:05:55;;;;;;;3.95;3.00;;;;;;;29.99;42.84;97660.19;7592009;23;20212;-68
2022/07/29 09:08:59;;;;;;;4.40;3.47;;;;;;;29.89;43.42;97661.88;7591418;23;20212;-68
2022/07/29 09:12:01;;;;;;;4.72;3.78;;;;;;;29.69;44.01;97665.09;7617394;23;20208;-68
2022/07/29 09:15:03;;;;;;;3.25;2.95;;;;;;;29.52;43.60;97656.91;7616597;23;20537;-69
2022/07/29 09:18:06;;;;;;;3.70;3.40;;;;;;;29.27;43.69;97657.22;7616640;23;20223;-68
2022/07/29 09:24:34;;;;;;;4.38;3.35;;;;;;;28.95;45.66;97664.19;7616977;23;20543;-69
2022/07/29 09:27:37;;;;;;;3.42;3.22;;;;;;;28.72;46.15;97670.47;7616767;23;20211;-68
2022/07/29 09:30:54;;;;;;;3.45;3.15;;;;;;;28.49;44.88;97665.91;7616730;23;20208;-69
2022/07/29 09:33:58;;;;;;;5.60;3.45;;;;;;;28.36;46.17;97662.59;7618331;23;20209;-69
2022/07/29 09:37:00;;;;;;;4.85;4.00;;;;;;;28.29;46.29;97673.56;7590332;23;20220;-69
2022/07/29 09:40:11;;;;;;;3.67;3.38;;;;;;;28.51;44.42;97669.22;7618915;23;20208;-69
2022/07/29 09:43:14;;;;;;;3.63;3.33;;;;;;;29.42;42.73;97662.16;7617454;23;20224;-68
2022/07/29 09:46:16;;;;;;;3.80;3.50;;;;;;;29.47;42.14;97654.09;7619342;23;20559;-68
2022/07/29 09:49:18;;;;;;;4.07;3.60;;;;;;;29.70;40.94;97648.53;7616638;23;20348;-67
2022/07/29 09:52:21;;;;;;;3.63;3.33;;;;;;;29.95;40.85;97655.47;7616585;23;20208;-68
2022/07/29 09:55:23;;;;;;;3.47;3.17;;;;;;;30.30;40.00;97652.50;7615823;23;20219;-69
2022/07/29 09:58:27;;;;;;;4.00;3.40;;;;;;;31.22;40.44;97649.97;7615126;23;20212;-68
2022/07/29 10:01:29;;;;;;;4.15;3.75;;;;;;;30.59;37.31;97645.03;7615998;23;20212;-68
2022/07/29 10:04:42;;;;;;;3.42;3.10;;;;;;;30.49;37.85;97651.16;7589654;23;20220;-68
2022/07/29 10:07:50;;;;;;;3.67;3.38;;;;;;;30.17;37.86;97652.84;7616690;23;20228;-68
2022/07/29 10:11:09;;;;;;;3.95;3.65;;;;;;;30.27;38.46;97655.72;7615997;23;20220;-68
2022/07/29 10:14:11;;;;;;;3.85;3.53;;;;;;;30.70;37.82;97649.56;7616280;23;20213;-69
2022/07/29 10:17:15;;;;;;;3.80;3.47;;;;;;;31.36;36.56;97643.00;7589822;23;20220;-68
2022/07/29 10:20:17;;;;;;;3.00;2.80;;;;;;;31.59;35.74;97633.69;7578280;23;20696;-68
2022/07/29 10:23:20;;;;;;;3.42;3.08;;;;;;;30.48;37.16;97633.16;7580392;23;20224;-69
2022/07/29 10:26:23;;;;;;;3.55;3.15;;;;;;;30.02;37.53;97650.72;7580909;23;20213;-68
2022/07/29 10:29:26;;;;;;;3.20;3.00;;;;;;;30.09;39.70;97643.19;7580359;23;20216;-68
2022/07/29 10:32:49;;;;;;;3.53;3.22;;;;;;;30.16;42.25;97640.28;7580230;23;20206;-68
2022/07/29 10:36:16;;;;;;;3.72;3.42;;;;;;;30.10;43.58;97631.25;7581230;23;20216;-68
2022/07/29 10:39:48;;;;;;;3.50;3.20;;;;;;;30.37;43.32;97631.34;7580123;23;20185;-68
2022/07/29 10:42:53;;;;;;;3.17;2.92;;;;;;;30.48;44.17;97629.59;7580752;23;20220;-69
2022/07/29 10:45:58;;;;;;;3.80;3.25;;;;;;;30.38;44.10;97628.38;7580751;23;20295;-67
2022/07/29 10:49:16;;;;;;;3.33;3.10;;;;;;;29.92;40.75;97624.13;7580405;23;20667;-67
2022/07/29 10:52:52;;;;;;;3.55;3.22;;;;;;;29.91;42.62;97627.91;7580411;23;20236;-68
2022/07/29 10:55:55;;;;;;;3.47;3.20;;;;;;;30.02;42.49;97616.16;7578578;23;20423;-68
2022/07/29 10:59:20;;;;;;;2.90;2.70;;;;;;;30.18;42.61;97621.81;7580123;23;20291;-69
2022/07/29 11:02:56;;;;;;;3.25;2.95;;;;;;;30.45;42.28;97614.56;7568848;23;20684;-68
2022/07/29 11:05:57;;;;;;;3.60;3.30;;;;;;;30.48;42.33;97607.81;7578414;23;20583;-67
2022/07/29 11:09:20;;;;;;;4.38;3.40;;;;;;;30.02;41.32;97609.88;7579834;23;20201;-68
2022/07/29 11:12:38;;;;;;;3.47;3.17;;;;;;;29.84;42.44;97600.06;7580595;23;20214;-69
2022/07/29 11:15:54;;;;;;;3.58;3.28;;;;;;;30.23;42.85;97598.22;7579655;23;20232;-69
2022/07/29 11:19:12;;;;;;;3.70;3.00;;;;;;;30.59;42.64;97601.44;7593819;23;20688;-68
2022/07/29 11:22:34;;;;;;;3.42;3.15;;;;;;;31.05;40.38;97587.28;7590501;23;20547;-69
2022/07/29 11:25:36;;;;;;;3.78;3.47;;;;;;;31.44;39.76;97590.72;7614993;23;20216;-69
2022/07/29 11:29:05;;;;;;;3.45;3.15;;;;;;;31.71;39.44;97589.88;7615969;23;20213;-67
2022/07/29 11:32:14;;;;;;;3.25;3.00;;;;;;;31.62;37.97;97586.78;7616164;23;20216;-68
2022/07/29 11:35:24;;;;;;;4.88;3.25;;;;;;;31.08;38.37;97583.25;7616100;23;20684;-68
2022/07/29 11:38:41;;;;;;;3.47;3.17;;;;;;;30.63;38.70;97578.09;7615593;23;20952;-70
2022/07/29 11:41:43;;;;;;;3.95;3.30;;;;;;;30.43;39.17;97575.91;7589525;23;20208;-68
2022/07/29 11:45:05;;;;;;;6.07;3.42;;;;;;;30.44;39.60;97578.38;7616654;23;20217;-68
2022/07/29 11:48:27;;;;;;;5.45;3.50;;;;;;;31.27;37.85;97570.91;7622197;23;20205;-69
2022/07/29 11:51:36;;;;;;;3.63;3.33;;;;;;;31.87;36.67;97556.97;7615706;23;20209;-67
2022/07/29 11:54:50;;;;;;;4.88;3.28;;;;;;;31.59;37.04;97561.91;7614987;23;20209;-68
2022/07/29 11:58:01;;;;;;;3.13;2.83;;;;;;;31.99;36.57;97559.53;7614882;23;20236;-68
2022/07/29 12:01:06;;;;;;;3.17;2.97;;;;;;;32.04;35.26;97550.56;7615064;23;20218;-68
2022/07/29 12:04:08;;;;;;;3.53;3.22;;;;;;;31.34;36.80;97540.72;7615113;23;20248;-68
2022/07/29 12:07:11;;;;;;;4.13;3.40;;;;;;;30.83;39.12;97548.34;7614836;23;20215;-67
2022/07/29 12:10:16;;;;;;;4.45;3.60;;;;;;;30.91;40.41;97545.16;7613140;23;20213;-68
2022/07/29 12:13:39;;;;;;;4.15;3.75;;;;;;;30.99;40.13;97549.31;7614851;23;20683;-69
2022/07/29 12:16:41;;;;;;;3.60;3.30;;;;;;;30.93;39.65;97551.19;7614870;23;20239;-68
2022/07/29 12:19:45;;;;;;;3.65;3.33;;;;;;;30.81;39.81;97556.78;7589871;23;20561;-68
2022/07/29 12:22:49;;;;;;;4.35;3.40;;;;;;;31.24;40.69;97555.06;7615708;23;20212;-68
2022/07/29 12:25:51;;;;;;;4.13;3.45;;;;;;;32.12;37.29;97550.88;7564852;23;20625;-68
2022/07/29 12:28:54;;;;;;;5.00;3.28;;;;;;;32.63;36.72;97553.88;7614744;23;20214;-68
2022/07/29 12:31:57;;;;;;;3.80;3.40;;;;;;;32.93;35.48;97548.56;7590187;23;20300;-68
2022/07/29 12:35:09;;;;;;;4.20;3.53;;;;;;;32.33;35.65;97540.09;7614736;23;20223;-69
2022/07/29 12:38:13;;;;;;;4.38;3.38;;;;;;;31.28;37.03;97537.09;7588488;23;20217;-69
2022/07/29 12:41:15;;;;;;;4.13;3.22;;;;;;;30.89;38.38;97525.50;7615741;23;20219;-69
2022/07/29 12:44:17;;;;;;;3.72;3.42;;;;;;;31.03;39.91;97537.66;7590496;23;20229;-68
2022/07/29 12:47:20;;;;;;;3.53;3.05;;;;;;;30.71;39.99;97545.75;7614993;23;20684;-68
2022/07/29 12:50:22;;;;;;;5.10;3.92;;;;;;;30.03;41.07;97544.31;7614241;23;20287;-68
2022/07/29 12:53:28;;;;;;;3.63;3.33;;;;;;;29.71;42.05;97535.91;7615149;23;20596;-69
2022/07/29 12:56:30;;;;;;;4.88;3.22;;;;;;;29.60;42.22;97544.16;7614412;23;20223;-68
2022/07/29 13:00:10;;;;;;;3.72;3.30;;;;;;;29.36;42.75;97546.16;7613776;23;20216;-68
2022/07/29 13:03:12;;;;;;;3.40;3.10;;;;;;;28.98;43.83;97546.84;7613474;23;20680;-68
2022/07/29 13:06:38;;;;;;;3.35;3.10;;;;;;;28.64;43.98;97552.16;7614411;23;20180;-68
2022/07/29 13:09:45;;;;;;;3.42;3.13;;;;;;;28.31;44.89;97554.72;7614751;23;20676;-68
2022/07/29 13:13:06;;;;;;;3.95;3.63;;;;;;;28.04;46.09;97565.25;7589823;23;20584;-67
2022/07/29 13:16:08;;;;;;;5.25;3.65;;;;;;;27.57;46.82;97558.97;7596071;23;20213;-68
2022/07/29 13:19:12;;;;;;;4.25;3.67;;;;;;;27.09;46.66;97557.19;7617752;23;20532;-69
2022/07/29 13:22:16;;;;;;;4.18;3.60;;;;;;;26.51;48.14;97565.03;7614368;23;20223;-68
2022/07/29 13:25:31;;;;;;;4.38;3.40;;;;;;;26.23;49.40;97573.66;7588837;23;20216;-68
2022/07/29 13:28:34;;;;;;;3.70;3.40;;;;;;;26.12;51.36;97585.22;7613701;23;20578;-68
2022/07/29 13:31:36;;;;;;;4.20;3.67;;;;;;;26.05;51.43;97587.16;7614569;23;20445;-68
2022/07/29 13:34:38;;;;;;;4.85;3.42;;;;;;;25.97;51.55;97588.25;7614565;23;20212;-68
2022/07/29 13:37:40;;;;;;;4.82;3.45;;;;;;;25.69;52.14;97610.38;7616350;23;20216;-67
2022/07/29 13:40:42;;;;;;;4.03;3.47;;;;;;;25.55;52.51;97621.47;7614214;23;20217;-68
2022/07/29 13:43:44;;;;;;;4.13;3.67;;;;;;;25.43;52.76;97634.03;7613920;23;20224;-67
2022/07/29 13:46:51;;;;;;;3.55;3.17;;;;;;;25.31;53.36;97656.34;7589624;23;20476;-69
2022/07/29 13:49:53;;;;;;;6.15;3.53;;;;;;;25.04;55.18;97657.53;7613905;23;20220;-67
2022/07/29 13:52:55;;;;;;;4.20;3.80;;;;;;;24.63;56.62;97661.41;7617682;23;20212;-68
2022/07/29 13:55:57;;;;;;;4.40;4.00;;;;;;;24.40;58.53;97668.31;7590839;23;20209;-69
2022/07/29 13:58:59;;;;;;;4.25;3.88;;;;;;;23.92;61.05;97666.69;7616877;23;20208;-68
2022/07/29 14:02:02;;;;;;;4.10;3.80;;;;;;;23.53;62.87;97662.13;7590888;23;20213;-68
2022/07/29 14:05:06;;;;;;;3.88;3.53;;;;;;;23.25;63.86;97655.19;7616121;23;20225;-68
2022/07/29 14:08:09;;;;;;;6.22;3.92;;;;;;;23.01;64.29;97653.88;7615174;23;20589;-69
2022/07/29 14:11:11;;;;;;;10.40;4.40;;;;;;;22.96;65.97;97656.34;7618346;23;20208;-67
2022/07/29 14:14:13;;;;;;;8.48;4.20;;;;;;;22.84;67.71;97648.03;7616321;23;20234;-67
2022/07/29 14:17:16;;;;;;;5.00;3.95;;;;;;;22.68;69.62;97638.41;7616368;23;20219;-67
2022/07/29 14:20:18;;;;;;;8.80;4.73;;;;;;;22.42;71.31;97640.97;7615784;23;20240;-68
2022/07/29 14:23:20;;;;;;;6.00;4.50;;;;;;;22.17;72.38;97637.91;7616083;23;20223;-67
2022/07/29 14:26:22;;;;;;;4.73;3.87;;;;;;;22.08;72.52;97623.81;7590316;23;20212;-68
2022/07/29 14:29:25;;;;;;;7.83;5.27;;;;;;;22.06;73.07;97611.59;7617649;23;20215;-67
2022/07/29 14:32:39;;;;;;;4.73;4.27;;;;;;;21.89;74.38;97605.66;7616586;23;20788;-67
2022/07/29 14:35:41;;;;;;;5.80;4.57;;;;;;;21.80;74.42;97609.53;7615724;23;20255;-67
2022/07/29 14:38:43;;;;;;;5.20;4.70;;;;;;;21.95;74.91;97612.94;7616068;23;20228;-67
2022/07/29 14:41:45;;;;;;;4.57;4.07;;;;;;;22.19;73.95;97606.28;7588649;23;20266;-67
2022/07/29 14:44:49;;;;;;;5.97;4.30;;;;;;;22.27;73.50;97607.97;7590233;23;20220;-67
2022/07/29 14:47:51;;;;;;;5.47;4.40;;;;;;;22.30;73.50;97591.47;7615149;23;20216;-68
2022/07/29 14:50:58;;;;;;;6.40;4.57;;;;;;;22.43;73.47;97581.59;7615887;23;20279;-68